createdAt,value
2018-04-23T00:00:09.370Z,15.52
2018-04-23T00:02:36.942Z,15.56
2018-04-23T00:05:04.473Z,15.46
2018-04-23T00:07:32.048Z,15.43
2018-04-23T00:09:59.587Z,15.30
2018-04-23T00:12:27.177Z,15.33
2018-04-23T00:14:54.750Z,15.45
2018-04-23T00:17:22.283Z,15.49
2018-04-23T00:19:49.864Z,15.50
2018-04-23T00:22:17.449Z,15.27
2018-04-23T00:24:44.991Z,15.12
2018-04-23T00:27:12.559Z,14.96
2018-04-23T00:29:40.093Z,15.02
2018-04-23T00:32:07.628Z,15.04
2018-04-23T00:34:35.163Z,15.00
2018-04-23T00:37:02.713Z,14.89
2018-04-23T00:39:30.255Z,14.78
2018-04-23T00:41:57.785Z,14.87
2018-04-23T00:44:25.332Z,15.00
2018-04-23T00:46:52.887Z,14.99
2018-04-23T00:49:20.438Z,14.84
2018-04-23T00:51:47.969Z,14.82
2018-04-23T00:54:15.512Z,14.70
2018-04-23T00:56:43.043Z,14.68
2018-04-23T00:59:10.572Z,14.58
2018-04-23T01:01:38.099Z,14.41
2018-04-23T01:04:05.626Z,14.33
2018-04-23T01:06:33.159Z,14.27
2018-04-23T01:09:00.731Z,14.21
2018-04-23T01:11:28.261Z,14.19
2018-04-23T01:13:55.784Z,14.25
2018-04-23T01:16:24.217Z,14.27
2018-04-23T01:18:51.790Z,14.32
2018-04-23T01:21:19.328Z,14.32
2018-04-23T01:23:46.873Z,14.12
2018-04-23T01:26:14.416Z,14.22
2018-04-23T01:28:41.963Z,14.23
2018-04-23T01:31:09.540Z,14.09
2018-04-23T01:33:37.075Z,14.08
2018-04-23T01:36:04.636Z,14.12
2018-04-23T01:38:32.202Z,13.95
2018-04-23T01:40:59.748Z,14.02
2018-04-23T01:43:27.290Z,13.96
2018-04-23T01:45:54.818Z,13.93
2018-04-23T01:48:22.347Z,13.86
2018-04-23T01:50:54.077Z,13.81
2018-04-23T01:53:21.700Z,13.81
2018-04-23T01:55:49.281Z,13.65
2018-04-23T01:58:16.851Z,13.54
2018-04-23T02:00:44.415Z,13.53
2018-04-23T02:03:11.943Z,13.72
2018-04-23T02:05:39.471Z,13.67
2018-04-23T02:08:07.055Z,13.61
2018-04-23T02:10:34.584Z,13.47
2018-04-23T02:13:02.576Z,13.53
2018-04-23T02:15:30.103Z,13.48
2018-04-23T02:17:57.668Z,13.55
2018-04-23T02:20:25.204Z,13.55
2018-04-23T02:22:52.831Z,13.64
2018-04-23T02:25:20.343Z,13.61
2018-04-23T02:27:47.886Z,13.61
2018-04-23T02:30:15.467Z,13.64
2018-04-23T02:32:43.000Z,13.56
2018-04-23T02:35:10.580Z,13.52
2018-04-23T02:37:38.143Z,13.45
2018-04-23T02:40:05.720Z,13.38
2018-04-23T02:42:34.033Z,13.32
2018-04-23T02:45:02.528Z,13.20
2018-04-23T02:47:30.104Z,13.26
2018-04-23T02:49:57.672Z,13.07
2018-04-23T02:52:25.215Z,12.81
2018-04-23T02:54:52.766Z,12.68
2018-04-23T02:57:20.304Z,12.65
2018-04-23T02:59:47.853Z,12.60
2018-04-23T03:02:16.419Z,12.83
2018-04-23T03:04:43.963Z,12.89
2018-04-23T03:07:11.552Z,12.93
2018-04-23T03:09:39.088Z,12.71
2018-04-23T03:12:06.620Z,12.73
2018-04-23T03:14:34.199Z,12.73
2018-04-23T03:17:01.748Z,12.68
2018-04-23T03:19:29.335Z,12.78
2018-04-23T03:21:56.871Z,12.56
2018-04-23T03:24:24.446Z,12.31
2018-04-23T03:26:51.982Z,12.32
2018-04-23T03:29:19.514Z,12.39
2018-04-23T03:31:47.080Z,12.49
2018-04-23T03:34:14.607Z,12.62
2018-04-23T03:36:42.169Z,12.59
2018-04-23T03:39:09.699Z,12.55
2018-04-23T03:41:37.247Z,12.42
2018-04-23T03:44:04.811Z,12.49
2018-04-23T03:46:33.258Z,12.61
2018-04-23T03:49:00.793Z,12.55
2018-04-23T03:51:28.366Z,12.49
2018-04-23T03:53:55.905Z,12.48
2018-04-23T03:56:23.448Z,12.67
2018-04-23T03:58:51.053Z,12.60
2018-04-23T04:01:18.589Z,12.60
2018-04-23T04:03:46.129Z,12.60
2018-04-23T04:06:13.666Z,12.56
2018-04-23T04:08:41.200Z,12.54
2018-04-23T04:11:08.744Z,12.67
2018-04-23T04:13:48.104Z,12.74
2018-04-23T04:16:27.555Z,13.08
2018-04-23T04:18:55.110Z,13.72
2018-04-23T04:21:22.643Z,14.30
2018-04-23T04:23:50.172Z,14.92
2018-04-23T04:26:17.708Z,15.35
2018-04-23T04:28:45.279Z,15.71
2018-04-23T04:31:13.133Z,16.01
2018-04-23T04:33:40.655Z,16.17
2018-04-23T04:36:08.187Z,16.64
2018-04-23T04:38:35.758Z,16.91
2018-04-23T04:41:03.295Z,16.88
2018-04-23T04:43:30.832Z,16.97
2018-04-23T04:45:58.366Z,17.16
2018-04-23T04:48:25.899Z,16.94
2018-04-23T04:50:53.485Z,17.44
2018-04-23T04:53:21.028Z,18.48
2018-04-23T04:55:48.560Z,18.62
2018-04-23T04:58:16.087Z,18.82
2018-04-23T05:00:43.628Z,18.75
2018-04-23T05:03:11.181Z,19.77
2018-04-23T05:05:38.775Z,19.51
2018-04-23T05:08:06.315Z,19.67
2018-04-23T05:10:33.849Z,19.46
2018-04-23T05:13:01.429Z,19.59
2018-04-23T05:15:29.985Z,19.95
2018-04-23T05:17:57.563Z,20.61
2018-04-23T05:20:25.096Z,21.24
2018-04-23T05:22:52.691Z,21.11
2018-04-23T05:25:20.228Z,21.27
2018-04-23T05:27:47.778Z,21.01
2018-04-23T05:30:15.357Z,22.11
2018-04-23T05:32:42.898Z,21.78
2018-04-23T05:35:10.479Z,20.61
2018-04-23T05:37:38.021Z,21.20
2018-04-23T05:40:05.563Z,21.48
2018-04-23T05:42:33.142Z,22.24
2018-04-23T05:45:00.690Z,22.45
2018-04-23T05:47:28.232Z,22.26
2018-04-23T05:49:55.828Z,23.22
2018-04-23T05:52:23.415Z,24.02
2018-04-23T05:54:50.962Z,22.76
2018-04-23T05:57:18.497Z,23.09
2018-04-23T05:59:46.077Z,23.13
2018-04-23T06:02:14.128Z,23.06
2018-04-23T06:04:42.001Z,22.98
2018-04-23T06:07:09.534Z,23.96
2018-04-23T06:09:37.076Z,24.10
2018-04-23T06:12:04.607Z,24.67
2018-04-23T06:14:32.139Z,24.39
2018-04-23T06:16:59.675Z,24.16
2018-04-23T06:19:27.217Z,25.10
2018-04-23T06:21:54.842Z,24.18
2018-04-23T06:24:22.424Z,24.60
2018-04-23T06:26:49.973Z,26.41
2018-04-23T06:29:17.564Z,25.92
2018-04-23T06:31:45.104Z,25.04
2018-04-23T06:34:12.681Z,24.18
2018-04-23T06:36:40.238Z,23.84
2018-04-23T06:39:07.778Z,24.34
2018-04-23T06:41:35.343Z,25.19
2018-04-23T06:44:02.877Z,24.87
2018-04-23T06:46:30.443Z,25.52
2018-04-23T06:48:58.244Z,25.36
2018-04-23T06:51:25.784Z,25.11
2018-04-23T06:53:53.355Z,24.93
2018-04-23T06:56:20.912Z,25.78
2018-04-23T06:58:48.534Z,25.80
2018-04-23T07:01:16.111Z,26.93
2018-04-23T07:03:43.713Z,26.59
2018-04-23T07:06:11.260Z,27.45
2018-04-23T07:08:38.836Z,26.54
2018-04-23T07:11:06.380Z,26.18
2018-04-23T07:13:33.978Z,26.35
2018-04-23T07:16:01.542Z,27.38
2018-04-23T07:18:29.096Z,27.26
2018-04-23T07:20:56.671Z,27.78
2018-04-23T07:23:24.259Z,26.60
2018-04-23T07:25:51.811Z,28.24
2018-04-23T07:28:19.348Z,27.86
2018-04-23T07:30:46.917Z,28.70
2018-04-23T07:33:14.471Z,28.38
2018-04-23T07:35:42.014Z,28.25
2018-04-23T07:38:09.571Z,28.32
2018-04-23T07:40:37.154Z,27.88
2018-04-23T07:43:04.687Z,28.28
2018-04-23T07:45:32.222Z,28.34
2018-04-23T07:47:59.790Z,28.45
2018-04-23T07:50:27.338Z,28.18
2018-04-23T07:52:54.883Z,29.23
2018-04-23T07:55:22.439Z,29.62
2018-04-23T07:57:49.989Z,29.45
2018-04-23T08:00:17.551Z,28.65
2018-04-23T08:02:45.087Z,28.92
2018-04-23T08:05:12.618Z,29.80
2018-04-23T08:07:40.155Z,30.89
2018-04-23T08:10:07.733Z,30.74
2018-04-23T08:12:35.254Z,29.62
2018-04-23T08:15:02.790Z,30.22
2018-04-23T08:17:30.328Z,30.31
2018-04-23T08:19:57.876Z,31.10
2018-04-23T08:22:25.544Z,32.49
2018-04-23T08:24:53.105Z,32.27
2018-04-23T08:27:20.657Z,32.15
2018-04-23T08:29:48.262Z,31.68
2018-04-23T08:32:15.805Z,31.40
2018-04-23T08:34:43.330Z,32.12
2018-04-23T08:37:10.872Z,33.05
2018-04-23T08:39:38.404Z,32.91
2018-04-23T08:42:05.949Z,32.64
2018-04-23T08:44:33.489Z,32.04
2018-04-23T08:47:01.034Z,31.98
2018-04-23T08:49:28.577Z,31.62
2018-04-23T08:51:56.112Z,31.78
2018-04-23T08:54:23.658Z,32.04
2018-04-23T08:56:51.223Z,32.58
2018-04-23T08:59:18.764Z,32.62
2018-04-23T09:01:46.295Z,31.80
2018-04-23T09:04:13.837Z,33.46
2018-04-23T09:06:41.380Z,34.17
2018-04-23T09:09:09.794Z,33.57
2018-04-23T09:11:37.368Z,32.91
2018-04-23T09:14:04.940Z,32.60
2018-04-23T09:16:32.468Z,32.52
2018-04-23T09:18:59.999Z,33.28
2018-04-23T09:21:27.568Z,34.35
2018-04-23T09:23:55.100Z,34.20
2018-04-23T09:26:22.641Z,32.83
2018-04-23T09:28:50.204Z,33.31
2018-04-23T09:31:17.773Z,33.16
2018-04-23T09:33:45.298Z,33.68
2018-04-23T09:36:12.850Z,33.69
2018-04-23T09:38:40.381Z,33.21
2018-04-23T09:41:07.921Z,33.63
2018-04-23T09:43:35.474Z,33.31
2018-04-23T09:46:03.039Z,32.99
2018-04-23T09:48:30.585Z,33.57
2018-04-23T09:50:58.110Z,33.20
2018-04-23T09:53:25.695Z,33.73
2018-04-23T09:55:53.252Z,34.47
2018-04-23T09:58:20.794Z,34.97
2018-04-23T10:00:48.358Z,35.01
2018-04-23T10:03:15.892Z,33.55
2018-04-23T10:05:43.436Z,33.63
2018-04-23T10:08:10.983Z,34.00
2018-04-23T10:10:39.379Z,34.23
2018-04-23T10:13:06.911Z,33.13
2018-04-23T10:15:34.508Z,34.53
2018-04-23T10:18:02.042Z,33.98
2018-04-23T10:20:29.582Z,33.25
2018-04-23T10:22:57.183Z,33.52
2018-04-23T10:25:24.749Z,34.68
2018-04-23T10:27:52.275Z,34.93
2018-04-23T10:30:19.835Z,35.46
2018-04-23T10:32:47.376Z,35.16
2018-04-23T10:35:14.898Z,35.52
2018-04-23T10:37:42.428Z,34.64
2018-04-23T10:40:10.005Z,34.86
2018-04-23T10:42:37.560Z,36.07
2018-04-23T10:45:05.084Z,34.40
2018-04-23T10:47:32.648Z,33.73
2018-04-23T10:50:00.230Z,33.73
2018-04-23T10:52:27.755Z,34.78
2018-04-23T10:54:55.345Z,36.16
2018-04-23T10:57:22.877Z,37.17
2018-04-23T10:59:50.407Z,37.07
2018-04-23T11:02:17.933Z,35.32
2018-04-23T11:04:45.530Z,35.44
2018-04-23T11:07:13.068Z,33.73
2018-04-23T11:09:40.661Z,34.88
2018-04-23T11:12:08.156Z,35.66
2018-04-23T11:14:35.682Z,34.84
2018-04-23T11:17:03.233Z,35.85
2018-04-23T11:19:30.768Z,35.25
2018-04-23T11:21:58.316Z,34.83
2018-04-23T11:24:25.863Z,35.04
2018-04-23T11:26:53.436Z,36.05
2018-04-23T11:29:20.973Z,35.27
2018-04-23T11:31:48.509Z,35.14
2018-04-23T11:34:16.031Z,34.63
2018-04-23T11:36:43.564Z,36.41
2018-04-23T11:39:11.098Z,36.85
2018-04-23T11:41:38.645Z,36.45
2018-04-23T11:44:06.190Z,36.51
2018-04-23T11:46:33.777Z,37.14
2018-04-23T11:49:01.317Z,37.01
2018-04-23T11:51:28.865Z,35.96
2018-04-23T11:53:56.409Z,35.08
2018-04-23T11:56:23.954Z,35.15
2018-04-23T11:58:51.496Z,36.00
2018-04-23T12:01:19.060Z,35.08
2018-04-23T12:03:46.595Z,35.34
2018-04-23T12:06:14.392Z,35.33
2018-04-23T12:08:41.944Z,35.14
2018-04-23T12:11:09.735Z,35.54
2018-04-23T12:13:37.274Z,35.54
2018-04-23T12:16:04.863Z,35.65
2018-04-23T12:18:32.398Z,35.37
2018-04-23T12:20:59.949Z,35.25
2018-04-23T12:23:27.496Z,34.76
2018-04-23T12:25:55.048Z,33.86
2018-04-23T12:28:22.626Z,34.23
2018-04-23T12:30:50.165Z,33.72
2018-04-23T12:33:17.741Z,34.29
2018-04-23T12:35:45.285Z,34.42
2018-04-23T12:38:12.869Z,33.41
2018-04-23T12:40:40.401Z,33.07
2018-04-23T12:43:07.944Z,33.27
2018-04-23T12:45:35.474Z,33.58
2018-04-23T12:48:03.018Z,33.61
2018-04-23T12:50:30.598Z,33.89
2018-04-23T12:52:58.127Z,33.59
2018-04-23T12:55:25.654Z,32.32
2018-04-23T12:57:53.252Z,32.10
2018-04-23T13:00:20.815Z,32.52
2018-04-23T13:02:48.386Z,32.47
2018-04-23T13:05:16.400Z,32.54
2018-04-23T13:07:44.001Z,32.01
2018-04-23T13:10:11.540Z,31.75
2018-04-23T13:12:39.079Z,31.62
2018-04-23T13:15:06.657Z,31.75
2018-04-23T13:17:34.208Z,31.53
2018-04-23T13:20:01.825Z,31.85
2018-04-23T13:22:29.391Z,31.36
2018-04-23T13:24:56.979Z,30.63
2018-04-23T13:27:24.522Z,30.52
2018-04-23T13:29:52.048Z,30.21
2018-04-23T13:32:19.580Z,30.09
2018-04-23T13:34:48.159Z,30.01
2018-04-23T13:37:15.718Z,29.76
2018-04-23T13:39:43.256Z,29.33
2018-04-23T13:42:10.800Z,29.43
2018-04-23T13:44:38.370Z,29.43
2018-04-23T13:47:05.922Z,29.28
2018-04-23T13:49:33.502Z,29.49
2018-04-23T13:52:01.036Z,29.73
2018-04-23T13:54:28.574Z,29.74
2018-04-23T13:56:56.107Z,29.27
2018-04-23T13:59:23.648Z,28.94
2018-04-23T14:01:51.332Z,28.83
2018-04-23T14:04:18.866Z,28.72
2018-04-23T14:06:46.447Z,28.82
2018-04-23T14:09:14.052Z,29.00
2018-04-23T14:11:41.593Z,29.13
2018-04-23T14:14:09.131Z,29.00
2018-04-23T14:16:36.705Z,29.08
2018-04-23T14:19:04.240Z,29.19
2018-04-23T14:21:31.866Z,28.94
2018-04-23T14:23:59.411Z,29.21
2018-04-23T14:26:27.012Z,29.17
2018-04-23T14:28:54.532Z,29.05
2018-04-23T14:31:22.110Z,29.03
2018-04-23T14:33:49.642Z,29.06
2018-04-23T14:36:17.216Z,28.87
2018-04-23T14:38:44.773Z,28.60
2018-04-23T14:41:12.300Z,28.48
2018-04-23T14:43:39.879Z,28.50
2018-04-23T14:46:08.075Z,28.45
2018-04-23T14:48:35.612Z,28.53
2018-04-23T14:51:03.144Z,28.35
2018-04-23T14:53:30.719Z,28.24
2018-04-23T14:55:58.256Z,28.35
2018-04-23T14:58:25.787Z,28.37
2018-04-23T15:00:53.365Z,28.42
2018-04-23T15:03:20.942Z,28.46
2018-04-23T15:05:48.538Z,28.26
2018-04-23T15:08:16.127Z,28.17
2018-04-23T15:10:43.684Z,28.15
2018-04-23T15:13:11.211Z,28.11
2018-04-23T15:15:38.781Z,28.03
2018-04-23T15:18:06.313Z,28.07
2018-04-23T15:20:33.840Z,27.70
2018-04-23T15:23:01.454Z,27.74
2018-04-23T15:25:29.089Z,27.71
2018-04-23T15:27:56.659Z,27.83
2018-04-23T15:30:24.234Z,27.89
2018-04-23T15:32:51.929Z,27.90
2018-04-23T15:35:19.478Z,27.72
2018-04-23T15:37:47.111Z,27.68
2018-04-23T15:40:14.804Z,27.57
2018-04-23T15:42:42.647Z,27.37
2018-04-23T15:45:10.193Z,27.14
2018-04-23T15:47:37.767Z,27.16
2018-04-23T15:50:05.308Z,27.31
2018-04-23T15:52:32.857Z,27.21
2018-04-23T15:55:00.398Z,27.17
2018-04-23T15:57:27.943Z,27.12
2018-04-23T15:59:55.518Z,27.05
2018-04-23T16:02:23.055Z,26.85
2018-04-23T16:04:50.589Z,26.67
2018-04-23T16:07:18.111Z,26.73
2018-04-23T16:09:45.752Z,26.57
2018-04-23T16:12:13.275Z,26.47
2018-04-23T16:14:40.914Z,26.54
2018-04-23T16:17:08.463Z,26.51
2018-04-23T16:19:35.988Z,26.25
2018-04-23T16:22:03.527Z,26.20
2018-04-23T16:24:31.135Z,26.15
2018-04-23T16:26:58.646Z,25.95
2018-04-23T16:29:26.209Z,25.92
2018-04-23T16:31:53.762Z,26.02
2018-04-23T16:34:21.299Z,26.03
2018-04-23T16:36:48.827Z,25.95
2018-04-23T16:39:16.359Z,25.83
2018-04-23T16:41:43.895Z,25.89
2018-04-23T16:44:11.462Z,25.83
2018-04-23T16:46:38.995Z,25.82
2018-04-23T16:49:06.562Z,25.69
2018-04-23T16:51:34.194Z,25.48
2018-04-23T16:54:02.344Z,25.36
2018-04-23T16:56:29.922Z,25.34
2018-04-23T16:58:57.493Z,25.33
2018-04-23T17:01:25.035Z,25.30
2018-04-23T17:03:52.602Z,25.24
2018-04-23T17:06:20.131Z,25.20
2018-04-23T17:08:47.659Z,25.08
2018-04-23T17:11:15.233Z,25.12
2018-04-23T17:13:42.768Z,25.00
2018-04-23T17:16:10.308Z,24.95
2018-04-23T17:18:37.835Z,25.00
2018-04-23T17:21:05.372Z,24.89
2018-04-23T17:23:32.979Z,24.92
2018-04-23T17:26:00.546Z,24.85
2018-04-23T17:28:28.089Z,24.63
2018-04-23T17:30:55.619Z,24.54
2018-04-23T17:33:23.168Z,24.56
2018-04-23T17:35:50.706Z,24.48
2018-04-23T17:38:18.300Z,24.54
2018-04-23T17:40:45.871Z,24.49
2018-04-23T17:43:13.407Z,24.46
2018-04-23T17:45:40.983Z,24.45
2018-04-23T17:48:08.519Z,24.43
2018-04-23T17:50:36.770Z,24.36
2018-04-23T17:53:04.308Z,24.34
2018-04-23T17:55:31.840Z,24.31
2018-04-23T17:57:59.398Z,24.27
2018-04-23T18:00:26.967Z,24.20
2018-04-23T18:02:54.503Z,24.16
2018-04-23T18:05:22.036Z,24.08
2018-04-23T18:07:49.578Z,24.01
2018-04-23T18:10:17.121Z,23.96
2018-04-23T18:12:44.702Z,23.89
2018-04-23T18:15:12.245Z,23.85
2018-04-23T18:17:39.842Z,23.79
2018-04-23T18:20:07.369Z,23.72
2018-04-23T18:22:34.917Z,23.71
2018-04-23T18:25:02.470Z,23.70
2018-04-23T18:27:30.003Z,23.71
2018-04-23T18:29:57.591Z,23.61
2018-04-23T18:32:25.136Z,23.59
2018-04-23T18:34:52.677Z,23.36
2018-04-23T18:37:20.219Z,23.29
2018-04-23T18:39:47.758Z,23.25
2018-04-23T18:42:15.344Z,23.20
2018-04-23T18:44:42.899Z,23.21
2018-04-23T18:47:10.477Z,23.24
2018-04-23T18:49:38.051Z,23.21
2018-04-23T18:52:05.605Z,23.17
2018-04-23T18:54:33.157Z,23.09
2018-04-23T18:57:00.736Z,22.99
2018-04-23T18:59:28.267Z,22.64
2018-04-23T19:01:55.815Z,22.40
2018-04-23T19:04:23.359Z,22.32
2018-04-23T19:06:50.911Z,22.35
2018-04-23T19:09:18.489Z,22.41
2018-04-23T19:11:46.082Z,22.13
2018-04-23T19:14:13.623Z,22.06
2018-04-23T19:16:41.178Z,21.99
2018-04-23T19:19:08.720Z,21.95
2018-04-23T19:21:36.270Z,22.02
2018-04-23T19:24:04.174Z,22.05
2018-04-23T19:26:31.715Z,21.96
2018-04-23T19:28:59.298Z,21.34
2018-04-23T19:31:26.913Z,21.21
2018-04-23T19:33:54.482Z,21.26
2018-04-23T19:36:22.039Z,21.35
2018-04-23T19:38:49.583Z,21.50
2018-04-23T19:41:17.301Z,21.59
2018-04-23T19:43:44.841Z,21.58
2018-04-23T19:46:12.467Z,21.44
2018-04-23T19:48:40.167Z,21.39
2018-04-23T19:51:07.704Z,21.52
2018-04-23T19:53:35.252Z,21.45
2018-04-23T19:56:02.852Z,21.18
2018-04-23T19:58:30.406Z,20.89
2018-04-23T20:00:57.968Z,20.91
2018-04-23T20:03:25.543Z,20.94
2018-04-23T20:05:53.120Z,21.03
2018-04-23T20:08:20.664Z,21.04
2018-04-23T20:10:48.242Z,21.03
2018-04-23T20:13:15.833Z,21.07
2018-04-23T20:15:43.401Z,21.00
2018-04-23T20:18:10.946Z,20.94
2018-04-23T20:20:38.488Z,20.64
2018-04-23T20:23:06.061Z,20.67
2018-04-23T20:25:33.645Z,20.58
2018-04-23T20:28:01.227Z,20.44
2018-04-23T20:30:28.825Z,20.35
2018-04-23T20:32:56.380Z,20.44
2018-04-23T20:35:23.941Z,20.48
2018-04-23T20:37:51.523Z,20.49
2018-04-23T20:40:19.098Z,20.49
2018-04-23T20:42:46.635Z,20.43
2018-04-23T20:45:14.211Z,20.45
2018-04-23T20:47:41.787Z,20.30
2018-04-23T20:50:09.382Z,20.17
2018-04-23T20:52:36.928Z,20.08
2018-04-23T20:55:04.472Z,20.07
2018-04-23T20:57:32.105Z,20.14
2018-04-23T20:59:59.684Z,20.09
2018-04-23T21:02:27.218Z,19.75
2018-04-23T21:04:54.755Z,19.84
2018-04-23T21:07:22.295Z,19.72
2018-04-23T21:09:49.900Z,19.68
2018-04-23T21:12:17.443Z,19.65
2018-04-23T21:14:44.988Z,19.47
2018-04-23T21:17:12.527Z,19.40
2018-04-23T21:19:40.093Z,19.40
2018-04-23T21:22:07.710Z,19.40
2018-04-23T21:24:35.260Z,19.23
2018-04-23T21:27:02.863Z,19.30
2018-04-23T21:29:30.416Z,19.27
2018-04-23T21:31:57.957Z,19.32
2018-04-23T21:34:25.537Z,19.16
2018-04-23T21:36:53.127Z,19.04
2018-04-23T21:39:20.689Z,19.04
2018-04-23T21:41:48.244Z,18.98
2018-04-23T21:44:15.817Z,18.78
2018-04-23T21:46:43.401Z,18.82
2018-04-23T21:49:10.947Z,18.82
2018-04-23T21:51:39.360Z,18.77
2018-04-23T21:54:06.903Z,18.70
2018-04-23T21:56:34.535Z,18.57
2018-04-23T21:59:02.084Z,18.53
2018-04-23T22:01:29.643Z,18.45
2018-04-23T22:03:57.229Z,18.38
2018-04-23T22:06:24.776Z,18.38
2018-04-23T22:08:52.389Z,18.45
2018-04-23T22:11:19.980Z,18.52
2018-04-23T22:13:47.528Z,18.53
2018-04-23T22:16:15.106Z,18.53
2018-04-23T22:18:42.647Z,18.52
2018-04-23T22:21:10.228Z,18.54
2018-04-23T22:23:37.767Z,18.61
2018-04-23T22:26:05.371Z,18.60
2018-04-23T22:28:32.979Z,18.44
2018-04-23T22:31:00.578Z,18.44
2018-04-23T22:33:28.167Z,18.26
2018-04-23T22:35:55.705Z,18.17
2018-04-23T22:38:23.320Z,18.23
2018-04-23T22:40:50.882Z,18.35
2018-04-23T22:43:18.673Z,18.33
2018-04-23T22:45:46.608Z,18.31
2018-04-23T22:48:14.172Z,18.10
2018-04-23T22:50:41.712Z,17.89
2018-04-23T22:53:09.249Z,17.82
2018-04-23T22:55:36.789Z,17.80
2018-04-23T22:58:04.332Z,17.78
2018-04-23T23:00:31.904Z,17.63
2018-04-23T23:02:59.446Z,17.57
2018-04-23T23:05:27.027Z,17.51
2018-04-23T23:07:54.560Z,17.34
2018-04-23T23:10:22.154Z,17.28
2018-04-23T23:12:49.728Z,17.23
2018-04-23T23:15:17.272Z,17.13
2018-04-23T23:17:44.864Z,17.28
2018-04-23T23:20:12.400Z,17.38
2018-04-23T23:22:39.958Z,17.35
2018-04-23T23:25:07.493Z,17.30
2018-04-23T23:27:35.076Z,17.22
2018-04-23T23:30:04.629Z,17.30
2018-04-23T23:32:32.387Z,17.29
2018-04-23T23:34:59.932Z,17.18
2018-04-23T23:37:27.476Z,17.14
2018-04-23T23:39:55.007Z,17.10
2018-04-23T23:42:22.581Z,17.14
2018-04-23T23:44:50.118Z,17.08
2018-04-23T23:47:17.661Z,17.01
2018-04-23T23:49:45.207Z,16.97
2018-04-23T23:52:12.749Z,16.93
2018-04-23T23:54:40.284Z,16.93
2018-04-23T23:57:07.819Z,16.83
2018-04-23T23:59:35.415Z,16.55
